Scroll down
FLIGHT INFORMATION
United Airlines

UAL478

At Arrival Gate

KDEN
 KSJC
DATE: 2022-03-25
GATE: B28
GATE DEPARTURE: 17:41
TAKEOFF: 17:55
DATE: 2022-03-25
GATE:  -
LANDING: 20:00
GATE ARRIVAL: 20:05
FLIGHT DATA
Crew: 
Speed: 
454 kts
Altitude: 
36,014 ft
Stage Length: 
822.0 nm
Block Time: 
2.3 hrs
Flight Time: 
2.1 hrs
Fuel Used: 
12,070 lb
Cleared Route: KDEN VOAXA ELLFF WEEMN MANRD TRALP GDGET CRLES KATTS KNGRY KSJC
TRACK DATA
50,000 ft 1,000 kts
AIRCRAFT INFO AND CUMULATIVE STATS
Aircraft Type: 
B738SSW
Registration: 
SELCAL: 
CJAE
MSN/LN: 
39999 / 3549
Operator: 
Total Flights: 
4
Total Block Time: 
10.2 hrs
Total Flight Time: 
8.9 hrs
Total Fuel Used: 
53,301 lb
DATALINK LOG | Newest first | Current as of: 2022-08-16 01:23:24
LABEL SEQUENCE CONTENT Dn/Up
QD594620:05 10.5▼ Dn
QC554520:00▼ Dn
2U1909KSJC 231853Z VRB04KT 10SM FEW012 17/11 A3020 RMK AO2 SLP224 T01670106 $▲ Up
2S1407KSJC▼ Dn
2U3335KSJC 231817Z 33004KT 10SM FEW012 15/11 A3020 RMK AO2 T01500111 $▲ Up
2S2729KSJC▼ Dn
QB172717:55▼ Dn
QA041617:41 22.7▼ Dn
A35507CLEARED TO KSJC VIA COORZ6 VOAXA Q136 WEEMN Q136 KATTS KNGRY RAZRR4. SQUAWK 6615.▲ Up
Q05406[LINK ACK]▲ Up
Q05406[LINK TEST]▼ Dn


AIRCRAFT HISTORY
FLIGHT DATE FLIGHT NO. ORIGIN DESTINATION CLEARED ROUTE BLOCK TIME FLIGHT TIME FUEL USED PILOT
2022-03-25UAL478KDEN KSJC KDEN VOAXA ELLFF WEEMN MANRD TRALP GDGET CRLES KATTS KNGRY KSJC2.3 hrs2.1 hrs12,070 lbMike Dryden
2022-02-21UAL1702KORD KDEN KORD OLINN OREOS OBENE OGALE BRWRY DUNKL KOLSH PLZNR LAWGR PPINT TAPME GRRUB HHOLT RW17L2.6 hrs2.3 hrs16,154 lbNiklas Graefe
2022-01-20UAL1899KIAH KORD KIAH RENNK COLET SUSHI WWELL INDIE TPAKK LIT ZAVEL FTZ GROOV CASHN VINCA MAROC TRICH TRTLL HIHRY RINNO JORJO MONKZ TONIE HAZIL RW28C2.6 hrs2.1 hrs12,372 lbNiklas Graefe
2022-01-15UAL2168MHRO KIAH MHRO DUPEM URTEL AGPOD ODKOT DUTNA PEGLG MULLT SKALE LINKK GILLL RDFSH RW272.7 hrs2.5 hrs12,705 lbNiklas Graefe